Time;durP1;ratioP1;P1;durP2;ratioP2;P2;SDS_P1;SDS_P2;PMS_P1;PMS_P2;Temp;Humidity;BMP_temperature;BMP_pressure;BME280_temperature;BME280_humidity;BME280_pressure;Samples;Min_cycle;Max_cycle;Signal;HPM_P1;HPM_P2
2022/07/21 00:01:36;;;;;;;29.08;21.13;;;18.10;99.90;;;;;;8232646;28;20483;-77
2022/07/21 00:05:36;;;;;;;31.63;23.65;;;17.90;99.90;;;;;;8233317;28;20037;-78
2022/07/21 00:09:37;;;;;;;36.45;25.83;;;18.00;99.90;;;;;;8234915;28;20406;-77
2022/07/21 00:13:38;;;;;;;37.65;26.05;;;17.90;99.90;;;;;;8258166;28;20054;-77
2022/07/21 00:17:38;;;;;;;38.83;26.33;;;17.90;99.90;;;;;;8232279;28;20468;-77
2022/07/21 00:21:39;;;;;;;38.63;27.13;;;18.00;99.90;;;;;;8231220;28;20055;-77
2022/07/21 00:25:39;;;;;;;29.67;22.75;;;18.00;99.90;;;;;;8232917;28;20114;-77
2022/07/21 00:29:40;;;;;;;38.60;24.65;;;18.10;99.90;;;;;;8230964;28;20462;-76
2022/07/21 00:33:41;;;;;;;34.67;24.88;;;18.00;99.90;;;;;;8232156;28;20069;-77
2022/07/21 00:37:42;;;;;;;30.42;23.77;;;18.10;99.90;;;;;;8231104;28;20109;-76
2022/07/21 00:41:43;;;;;;;35.28;24.90;;;18.10;99.90;;;;;;8232461;28;20019;-77
2022/07/21 00:45:43;;;;;;;38.83;26.40;;;17.90;99.90;;;;;;8231491;28;20502;-76
2022/07/21 00:49:44;;;;;;;36.00;26.73;;;17.80;99.90;;;;;;8230297;28;20023;-77
2022/07/21 00:53:45;;;;;;;31.35;23.02;;;17.90;99.90;;;;;;8257605;28;20023;-77
2022/07/21 00:57:46;;;;;;;31.10;23.60;;;18.10;99.90;;;;;;8258853;28;20058;-76
2022/07/21 01:01:46;;;;;;;32.88;23.98;;;18.10;99.90;;;;;;8247414;28;20031;-77
2022/07/21 01:05:47;;;;;;;30.55;22.50;;;18.10;99.90;;;;;;8226102;28;20030;-78
2022/07/21 01:09:48;;;;;;;28.60;22.23;;;18.10;99.90;;;;;;8264749;23;20560;-79
2022/07/21 01:13:48;;;;;;;28.20;22.02;;;18.10;99.90;;;;;;8266276;28;20073;-77
2022/07/21 01:17:50;;;;;;;28.95;22.23;;;18.20;99.90;;;;;;8268261;28;20498;-78
2022/07/21 01:21:52;;;;;;;29.02;23.30;;;18.20;99.90;;;;;;8267672;28;20380;-78
2022/07/21 01:25:52;;;;;;;31.90;23.83;;;18.10;99.90;;;;;;8265216;28;20018;-77
2022/07/21 01:29:54;;;;;;;35.95;25.52;;;17.90;99.90;;;;;;8266332;28;20073;-78
2022/07/21 01:33:55;;;;;;;42.65;27.88;;;17.80;99.90;;;;;;8266733;28;20047;-78
2022/07/21 01:37:57;;;;;;;44.10;28.05;;;17.70;99.90;;;;;;8265614;28;20030;-79
2022/07/21 01:41:58;;;;;;;37.88;27.23;;;17.70;99.90;;;;;;8266576;28;20018;-78
2022/07/21 01:45:58;;;;;;;37.30;25.88;;;17.90;99.90;;;;;;8266937;28;20044;-78
2022/07/21 01:49:59;;;;;;;34.17;26.33;;;17.80;99.90;;;;;;8264885;28;20495;-78
2022/07/21 01:54:00;;;;;;;34.17;26.25;;;17.80;99.90;;;;;;8264333;28;20026;-77
2022/07/21 01:58:01;;;;;;;33.40;23.58;;;17.90;99.90;;;;;;8265996;28;20065;-78
2022/07/21 02:02:01;;;;;;;36.97;25.67;;;18.00;99.90;;;;;;8264673;28;20473;-78
2022/07/21 02:06:07;;;;;;;37.28;24.75;;;18.00;99.90;;;;;;8266207;28;20041;-78
2022/07/21 02:10:08;;;;;;;34.25;25.17;;;18.00;99.90;;;;;;8264505;28;20037;-78
2022/07/21 02:14:08;;;;;;;35.45;25.73;;;18.00;99.90;;;;;;8264987;28;20034;-78
2022/07/21 02:18:09;;;;;;;37.28;26.83;;;17.90;99.90;;;;;;8259696;28;20577;-78
2022/07/21 02:22:10;;;;;;;43.33;27.55;;;17.90;99.90;;;;;;8264589;28;20485;-78
2022/07/21 02:26:10;;;;;;;33.78;24.83;;;17.80;99.90;;;;;;8264173;28;20560;-78
2022/07/21 02:30:12;;;;;;;39.72;27.40;;;17.90;99.90;;;;;;8263830;28;20022;-78
2022/07/21 02:34:13;;;;;;;38.97;27.60;;;17.80;99.90;;;;;;8265297;28;20022;-79
2022/07/21 02:38:14;;;;;;;35.38;26.33;;;17.80;99.90;;;;;;8264865;28;20544;-78
2022/07/21 02:42:15;;;;;;;44.22;28.48;;;17.80;99.90;;;;;;8263529;28;20022;-77
2022/07/21 02:46:15;;;;;;;45.05;30.58;;;17.90;99.90;;;;;;8262937;28;20529;-78
2022/07/21 02:50:17;;;;;;;46.72;32.00;;;18.00;99.90;;;;;;8262961;28;20018;-76
2022/07/21 02:54:17;;;;;;;49.55;34.67;;;18.00;99.90;;;;;;8262340;28;20081;-78
2022/07/21 02:58:19;;;;;;;50.30;34.10;;;18.30;99.90;;;;;;8261656;28;20122;-77
2022/07/21 03:02:20;;;;;;;47.00;34.70;;;18.30;99.90;;;;;;8262271;28;20026;-78
2022/07/21 03:06:20;;;;;;;56.22;35.97;;;18.30;99.90;;;;;;8262124;28;20426;-78
2022/07/21 03:10:21;;;;;;;55.80;38.75;;;18.30;99.90;;;;;;8262413;28;20023;-78
2022/07/21 03:14:21;;;;;;;56.58;38.40;;;18.40;99.90;;;;;;8262955;28;20506;-78
2022/07/21 03:18:22;;;;;;;55.58;38.88;;;18.40;99.90;;;;;;8262489;28;20494;-77
2022/07/21 03:22:23;;;;;;;48.13;35.30;;;18.60;99.90;;;;;;8258230;28;20054;-78
2022/07/21 03:26:23;;;;;;;52.80;36.90;;;18.50;99.90;;;;;;8268558;28;20026;-78
2022/07/21 03:30:25;;;;;;;57.97;37.63;;;18.50;99.90;;;;;;8266368;28;20034;-78
2022/07/21 03:34:25;;;;;;;50.30;34.28;;;18.40;99.90;;;;;;8268816;28;20482;-78
2022/07/21 03:38:26;;;;;;;57.42;34.67;;;18.50;99.90;;;;;;8268229;28;20026;-77
2022/07/21 03:42:27;;;;;;;51.15;35.40;;;18.40;99.90;;;;;;8264520;28;20046;-78
2022/07/21 03:46:27;;;;;;;56.00;38.75;;;18.60;99.90;;;;;;8263516;28;20022;-78
2022/07/21 03:50:29;;;;;;;60.90;38.80;;;18.50;99.90;;;;;;8267451;28;20030;-79
2022/07/21 03:54:29;;;;;;;63.78;40.00;;;18.40;99.90;;;;;;8261210;28;20044;-77
2022/07/21 03:58:30;;;;;;;58.17;38.70;;;18.50;99.90;;;;;;8258611;28;20030;-78
2022/07/21 04:02:30;;;;;;;57.08;39.47;;;18.70;99.90;;;;;;8257666;28;20446;-78
2022/07/21 04:06:31;;;;;;;66.57;41.53;;;18.70;99.90;;;;;;8259467;28;20014;-78
2022/07/21 04:10:34;;;;;;;66.15;42.13;;;18.70;99.90;;;;;;8256295;28;20085;-78
2022/07/21 04:14:34;;;;;;;57.13;39.17;;;18.80;99.90;;;;;;8258944;28;20482;-78
2022/07/21 04:18:35;;;;;;;58.63;39.70;;;19.00;99.90;;;;;;8259690;28;20030;-78
2022/07/21 04:22:36;;;;;;;56.95;38.80;;;19.00;99.90;;;;;;8246743;28;20510;-77
2022/07/21 04:26:37;;;;;;;55.80;38.17;;;19.00;99.90;;;;;;8252874;28;20525;-81
2022/07/21 04:30:37;;;;;;;56.35;39.53;;;19.00;99.90;;;;;;8256876;28;20026;-81
2022/07/21 04:34:38;;;;;;;48.50;38.35;;;19.10;99.90;;;;;;8251340;28;20461;-81
2022/07/21 04:38:38;;;;;;;50.25;36.70;;;19.00;99.90;;;;;;8265236;28;20035;-81
2022/07/21 04:42:40;;;;;;;48.88;38.88;;;19.10;99.90;;;;;;8263390;28;20039;-83
2022/07/21 04:46:40;;;;;;;55.65;38.53;;;19.10;99.90;;;;;;8256990;28;20450;-83
2022/07/21 04:50:41;;;;;;;57.38;39.53;;;19.20;99.90;;;;;;8265015;28;20302;-83
2022/07/21 04:54:41;;;;;;;49.90;36.40;;;19.30;99.90;;;;;;8264357;28;20039;-84
2022/07/21 04:58:42;;;;;;;51.15;39.08;;;19.40;99.90;;;;;;8262638;28;20173;-82
2022/07/21 05:02:43;;;;;;;51.15;38.13;;;19.50;99.90;;;;;;8261270;28;20034;-81
2022/07/21 05:06:44;;;;;;;52.05;36.25;;;19.50;99.90;;;;;;8255416;28;20181;-81
2022/07/21 05:10:44;;;;;;;46.35;34.95;;;19.80;99.90;;;;;;8256327;28;20034;-81
2022/07/21 05:14:45;;;;;;;47.17;35.15;;;19.90;99.90;;;;;;8259834;28;20128;-81
2022/07/21 05:18:45;;;;;;;47.97;34.53;;;19.90;99.90;;;;;;8255184;28;20510;-81
2022/07/21 05:22:46;;;;;;;47.03;35.35;;;20.00;99.90;;;;;;8265509;28;20540;-81
2022/07/21 05:26:46;;;;;;;44.65;35.92;;;19.80;99.90;;;;;;8264992;28;20026;-80
2022/07/21 05:30:47;;;;;;;46.30;34.90;;;19.90;99.90;;;;;;8263841;28;20026;-83
2022/07/21 05:34:47;;;;;;;44.00;34.17;;;19.90;99.90;;;;;;8257050;28;20479;-83
2022/07/21 05:38:48;;;;;;;41.45;33.03;;;19.90;99.90;;;;;;8265600;28;20548;-84
2022/07/21 05:42:49;;;;;;;43.03;32.70;;;20.10;99.90;;;;;;8261318;28;20030;-84
2022/07/21 05:46:49;;;;;;;41.78;33.15;;;20.60;99.90;;;;;;8265943;28;20037;-83
2022/07/21 05:50:50;;;;;;;40.08;30.98;;;20.70;99.90;;;;;;8261972;28;20049;-84
2022/07/21 05:54:50;;;;;;;34.22;28.30;;;20.60;99.90;;;;;;8256501;28;20041;-83
2022/07/21 05:58:51;;;;;;;45.22;32.88;;;20.60;99.90;;;;;;8266224;28;20066;-83
2022/07/21 06:02:51;;;;;;;36.38;30.95;;;21.00;99.90;;;;;;8263207;28;20034;-84
2022/07/21 06:06:52;;;;;;;37.58;30.35;;;21.20;99.90;;;;;;8256862;28;20027;-84
2022/07/21 06:10:52;;;;;;;31.55;26.98;;;21.60;99.90;;;;;;8250099;28;20031;-84
2022/07/21 06:14:55;;;;;;;29.60;25.83;;;21.50;99.90;;;;;;8262995;28;20068;-84
2022/07/21 06:18:55;;;;;;;26.20;22.77;;;21.40;99.90;;;;;;8255630;28;20261;-83
2022/07/21 06:22:56;;;;;;;29.13;23.58;;;21.40;99.90;;;;;;8259490;28;20053;-83
2022/07/21 06:26:56;;;;;;;26.63;22.30;;;21.70;99.90;;;;;;8260970;28;20027;-84
2022/07/21 06:30:57;;;;;;;23.35;20.65;;;22.30;99.90;;;;;;8247837;28;20069;-83
2022/07/21 06:34:57;;;;;;;23.02;19.65;;;22.40;99.90;;;;;;8252329;28;20033;-83
2022/07/21 06:38:58;;;;;;;25.08;19.80;;;22.20;99.90;;;;;;8258726;28;20034;-83
2022/07/21 06:42:58;;;;;;;25.35;21.25;;;21.70;99.90;;;;;;8249345;28;20030;-83
2022/07/21 06:47:04;;;;;;;28.65;21.92;;;21.20;99.90;;;;;;8253998;28;20037;-84
2022/07/21 06:51:05;;;;;;;25.55;20.23;;;21.00;99.90;;;;;;8260467;28;20027;-83
2022/07/21 06:55:07;;;;;;;15.38;13.68;;;21.00;99.90;;;;;;8252265;28;20597;-84
2022/07/21 06:59:08;;;;;;;18.92;14.32;;;20.90;99.90;;;;;;8258267;28;20446;-83
2022/07/21 07:03:08;;;;;;;19.38;15.68;;;21.20;99.90;;;;;;8255449;28;20076;-83
2022/07/21 07:07:10;;;;;;;18.63;14.30;;;21.10;99.90;;;;;;8257426;28;20062;-84
2022/07/21 07:11:11;;;;;;;19.88;17.48;;;21.10;99.90;;;;;;8249186;28;20053;-83
2022/07/21 07:15:11;;;;;;;18.02;14.60;;;21.70;99.90;;;;;;8256801;28;20029;-83
2022/07/21 07:19:12;;;;;;;21.67;15.90;;;21.90;99.90;;;;;;8253959;28;20027;-83
2022/07/21 07:23:12;;;;;;;14.20;11.82;;;21.80;99.90;;;;;;8258969;28;20403;-83
2022/07/21 07:27:14;;;;;;;14.18;11.43;;;22.00;99.90;;;;;;8258359;28;20568;-83
2022/07/21 07:31:14;;;;;;;12.18;10.35;;;22.10;99.90;;;;;;8256048;28;20022;-86
2022/07/21 07:35:16;;;;;;;14.50;10.77;;;22.10;99.90;;;;;;8256503;28;20027;-81
2022/07/21 07:39:16;;;;;;;14.07;10.57;;;22.00;99.90;;;;;;8257570;28;20034;-80
2022/07/21 07:43:17;;;;;;;12.13;10.65;;;22.00;99.90;;;;;;8252673;28;20033;-80
2022/07/21 07:47:17;;;;;;;15.15;10.43;;;22.20;99.90;;;;;;8255740;28;20030;-80
2022/07/21 07:51:18;;;;;;;13.90;10.75;;;22.90;99.90;;;;;;8255127;28;20030;-80
2022/07/21 07:55:19;;;;;;;11.82;10.02;;;22.90;99.90;;;;;;8255323;28;20037;-80
2022/07/21 07:59:19;;;;;;;12.73;9.75;;;22.90;99.90;;;;;;8256803;28;20026;-80
2022/07/21 08:03:21;;;;;;;12.38;9.82;;;23.10;99.90;;;;;;8257646;28;20031;-80
2022/07/21 08:07:21;;;;;;;13.38;10.52;;;23.40;99.90;;;;;;8257689;28;20109;-80
2022/07/21 08:11:22;;;;;;;13.15;10.55;;;24.10;99.90;;;;;;8262094;28;20073;-80
2022/07/21 08:15:23;;;;;;;11.18;9.77;;;24.20;99.90;;;;;;8263971;28;20033;-80
2022/07/21 08:19:23;;;;;;;12.70;9.35;;;23.50;99.90;;;;;;8263700;28;20568;-80
2022/07/21 08:23:24;;;;;;;11.32;9.73;;;23.00;99.90;;;;;;8263490;28;20022;-80
2022/07/21 08:27:25;;;;;;;13.15;10.13;;;22.80;99.90;;;;;;8263997;28;20018;-80
2022/07/21 08:31:25;;;;;;;12.30;10.63;;;23.50;99.90;;;;;;8264004;28;20113;-80
2022/07/21 08:35:26;;;;;;;11.68;9.82;;;24.10;99.90;;;;;;8263407;28;20076;-81
2022/07/21 08:39:27;;;;;;;11.43;10.00;;;24.80;99.90;;;;;;8262539;28;20037;-81
2022/07/21 08:43:28;;;;;;;12.90;10.38;;;26.30;99.90;;;;;;8262408;28;20076;-80
2022/07/21 08:47:29;;;;;;;12.02;10.82;;;27.10;99.90;;;;;;8262545;28;20030;-80
2022/07/21 08:51:34;;;;;;;13.77;11.15;;;27.30;99.90;;;;;;8261644;28;20380;-80
2022/07/21 08:55:39;;;;;;;13.40;10.73;;;26.40;99.90;;;;;;8261279;28;20022;-80
2022/07/21 08:59:39;;;;;;;14.13;10.68;;;25.90;99.90;;;;;;8261708;28;20034;-81
2022/07/21 09:03:40;;;;;;;16.38;11.38;;;25.30;99.90;;;;;;8261803;28;20122;-79
2022/07/21 09:07:55;;;;;;;13.55;11.18;;;25.20;99.90;;;;;;8262277;28;20022;-81
2022/07/21 09:11:56;;;;;;;13.65;10.65;;;25.30;99.90;;;;;;8259898;28;20455;-80
2022/07/21 09:15:57;;;;;;;14.93;11.50;;;25.90;99.90;;;;;;8262214;28;20054;-80
2022/07/21 09:19:57;;;;;;;12.85;11.40;;;25.30;99.90;;;;;;8261389;28;20023;-80
2022/07/21 09:24:21;;;;;;;14.73;11.05;;;25.90;99.90;;;;;;8261181;28;20056;-81
2022/07/21 09:28:30;;;;;;;12.13;10.35;;;26.60;99.90;;;;;;8263148;28;20482;-81
2022/07/21 09:32:36;;;;;;;11.88;10.30;;;26.90;99.90;;;;;;8261792;28;20022;-80
2022/07/21 09:36:36;;;;;;;11.50;10.25;;;26.70;99.90;;;;;;8261541;28;20022;-80
2022/07/21 09:40:49;;;;;;;12.23;10.43;;;25.80;99.90;;;;;;8260618;28;20057;-81
2022/07/21 09:44:52;;;;;;;12.40;10.77;;;25.50;99.90;;;;;;8259948;28;20558;-80
2022/07/21 09:48:56;;;;;;;13.18;10.48;;;25.20;99.90;;;;;;8261520;28;20026;-80
2022/07/21 09:53:02;;;;;;;12.00;10.35;;;25.50;99.90;;;;;;8260177;28;20473;-80
2022/07/21 09:57:03;;;;;;;12.07;10.85;;;26.30;99.90;;;;;;8261756;28;20072;-82
2022/07/21 10:01:03;;;;;;;11.73;10.45;;;26.30;99.90;;;;;;8259863;28;20030;-81
2022/07/21 10:05:07;;;;;;;14.40;10.68;;;26.70;99.90;;;;;;8258465;28;20061;-80
2022/07/21 10:09:09;;;;;;;13.32;11.93;;;27.10;99.90;;;;;;8259439;28;20050;-81
2022/07/21 10:13:10;;;;;;;11.82;10.63;;;28.00;99.90;;;;;;8256058;28;20537;-81
2022/07/21 10:17:10;;;;;;;11.38;9.82;;;28.70;99.90;;;;;;8259268;28;20114;-81
2022/07/21 10:21:34;;;;;;;12.90;10.68;;;29.30;99.90;;;;;;8256623;28;20122;-81
2022/07/21 10:25:35;;;;;;;10.05;9.05;;;29.40;99.90;;;;;;8249719;28;20061;-80
2022/07/21 10:29:48;;;;;;;11.80;9.70;;;29.90;99.90;;;;;;8259072;28;20021;-81
2022/07/21 10:33:48;;;;;;;10.48;9.18;;;28.90;99.90;;;;;;8258742;28;20037;-80
2022/07/21 10:37:49;;;;;;;10.48;9.30;;;28.50;99.90;;;;;;8253792;28;20139;-81
2022/07/21 10:41:56;;;;;;;10.52;8.55;;;28.90;99.90;;;;;;8258518;28;20061;-81
2022/07/21 10:45:58;;;;;;;11.00;9.80;;;29.90;99.90;;;;;;8256948;28;20065;-82
2022/07/21 10:50:07;;;;;;;10.25;9.23;;;30.60;99.90;;;;;;8264126;28;20022;-81
2022/07/21 10:54:21;;;;;;;10.25;9.10;;;31.10;99.90;;;;;;8258143;28;20033;-81
2022/07/21 10:58:39;;;;;;;10.85;8.77;;;31.90;97.60;;;;;;8259894;28;20030;-81
2022/07/21 11:02:41;;;;;;;9.98;8.93;;;31.80;97.90;;;;;;8257577;28;20026;-81
2022/07/21 11:06:42;;;;;;;9.05;8.15;;;31.50;97.60;;;;;;8258942;28;20025;-81
2022/07/21 11:10:51;;;;;;;9.20;8.20;;;31.80;96.30;;;;;;8258439;28;20030;-81
2022/07/21 11:14:52;;;;;;;10.80;7.87;;;31.70;95.10;;;;;;8260035;28;20534;-81
2022/07/21 11:18:52;;;;;;;9.45;7.95;;;33.10;93.40;;;;;;8258428;28;20316;-81
2022/07/21 11:22:54;;;;;;;8.82;7.32;;;32.50;93.80;;;;;;8255034;28;20066;-82
2022/07/21 11:27:12;;;;;;;7.30;6.57;;;31.40;92.40;;;;;;8258413;28;20026;-82
2022/07/21 11:31:16;;;;;;;8.70;7.80;;;31.50;92.20;;;;;;8252935;28;20038;-81
2022/07/21 11:35:17;;;;;;;7.63;6.90;;;32.60;89.60;;;;;;8259041;28;20441;-82
2022/07/21 11:39:19;;;;;;;9.40;6.47;;;34.60;86.90;;;;;;8256153;28;20026;-81
2022/07/21 11:43:19;;;;;;;7.88;6.10;;;35.10;80.20;;;;;;8259832;28;20386;-82
2022/07/21 11:47:25;;;;;;;7.65;6.95;;;36.20;71.00;;;;;;8262712;28;20022;-82
2022/07/21 11:51:25;;;;;;;7.47;6.70;;;34.90;77.00;;;;;;8260088;28;20023;-82
2022/07/21 11:55:28;;;;;;;7.18;6.40;;;34.10;73.20;;;;;;8262669;28;20608;-81
2022/07/21 11:59:29;;;;;;;6.90;6.20;;;33.90;73.40;;;;;;8262722;28;20765;-82
2022/07/21 12:03:30;;;;;;;6.60;5.90;;;34.30;70.50;;;;;;8264387;28;20030;-82
2022/07/21 12:07:38;;;;;;;7.07;5.82;;;33.60;74.90;;;;;;8265498;28;20057;-81
2022/07/21 12:11:39;;;;;;;11.32;6.05;;;32.30;77.50;;;;;;8266947;28;20092;-81
2022/07/21 12:15:41;;;;;;;7.60;5.88;;;31.40;76.00;;;;;;8263474;28;20506;-80
2022/07/21 12:19:42;;;;;;;7.40;5.25;;;30.70;79.30;;;;;;8264009;28;20026;-80
2022/07/21 12:23:43;;;;;;;6.90;6.20;;;30.30;79.90;;;;;;8265365;28;20080;-80
2022/07/21 12:27:46;;;;;;;7.50;5.95;;;30.10;80.60;;;;;;8265126;28;20105;-80
2022/07/21 12:31:47;;;;;;;6.70;5.53;;;30.80;78.10;;;;;;8263506;28;20093;-80
2022/07/21 12:35:59;;;;;;;5.72;5.18;;;31.10;78.20;;;;;;8261156;28;20030;-79
2022/07/21 12:40:02;;;;;;;6.75;5.80;;;31.30;76.10;;;;;;8261389;28;20057;-80
2022/07/21 12:44:03;;;;;;;6.60;5.97;;;30.90;86.80;;;;;;8260703;28;20026;-79
2022/07/21 12:48:11;;;;;;;6.45;5.85;;;33.60;72.20;;;;;;8265627;28;20034;-79
2022/07/21 12:52:12;;;;;;;7.40;6.13;;;32.60;71.70;;;;;;8260924;28;20036;-79
2022/07/21 12:56:16;;;;;;;8.93;5.65;;;34.80;70.00;;;;;;8255467;28;20395;-80
2022/07/21 13:00:16;;;;;;;5.53;5.03;;;37.20;62.80;;;;;;8258807;28;20517;-80
2022/07/21 13:04:17;;;;;;;7.18;5.43;;;37.30;58.50;;;;;;8260379;28;20033;-79
2022/07/21 13:08:17;;;;;;;7.10;6.40;;;35.20;59.20;;;;;;8252301;28;20121;-80
2022/07/21 13:12:18;;;;;;;7.68;5.72;;;33.00;67.00;;;;;;8306399;22;20066;-80
2022/07/21 13:16:19;;;;;;;7.50;5.70;;;32.60;70.50;;;;;;8279217;28;20037;-81
2022/07/21 13:20:20;;;;;;;7.53;5.50;;;33.20;69.70;;;;;;8274242;28;20084;-82
2022/07/21 13:24:21;;;;;;;7.15;5.40;;;35.30;61.80;;;;;;8277889;28;20490;-81
2022/07/21 13:28:21;;;;;;;5.78;4.95;;;36.90;59.20;;;;;;8280421;28;20056;-81
2022/07/21 13:32:22;;;;;;;7.15;6.05;;;37.60;57.90;;;;;;8292247;28;20021;-81
2022/07/21 13:36:22;;;;;;;5.75;5.15;;;37.80;52.50;;;;;;8285999;28;20026;-79
2022/07/21 13:40:24;;;;;;;8.20;5.70;;;35.90;56.30;;;;;;8285292;28;20045;-81
2022/07/21 13:44:25;;;;;;;6.13;5.43;;;36.30;55.90;;;;;;8296911;28;20034;-80
2022/07/21 13:48:25;;;;;;;6.00;5.40;;;38.20;52.30;;;;;;8285661;28;20477;-82
2022/07/21 13:52:26;;;;;;;6.13;5.53;;;36.90;54.40;;;;;;8284429;28;20034;-81
2022/07/21 13:56:26;;;;;;;7.65;5.53;;;36.70;55.40;;;;;;8289396;28;20029;-82
2022/07/21 14:00:27;;;;;;;7.20;5.18;;;37.40;51.70;;;;;;8303898;28;20026;-80
2022/07/21 14:04:27;;;;;;;7.70;5.63;;;39.30;50.30;;;;;;8278302;28;20068;-81
2022/07/21 14:08:28;;;;;;;6.63;5.38;;;39.50;49.90;;;;;;8286849;28;20026;-81
2022/07/21 14:12:29;;;;;;;6.28;5.65;;;40.70;49.10;;;;;;8283484;28;20032;-80
2022/07/21 14:16:29;;;;;;;5.97;5.38;;;39.80;48.00;;;;;;8285999;28;20034;-80
2022/07/21 14:20:30;;;;;;;6.65;6.00;;;35.70;54.40;;;;;;8281750;28;20043;-81
2022/07/21 14:28:49;;;;;;;7.78;5.22;;;35.00;59.10;;;;;;8288737;28;20044;-81
2022/07/21 14:32:50;;;;;;;8.02;5.55;;;38.70;50.70;;;;;;8279857;28;20031;-81
2022/07/21 14:36:51;;;;;;;7.07;6.38;;;40.20;47.60;;;;;;8283278;28;20749;-80
2022/07/21 14:40:51;;;;;;;6.60;6.10;;;40.90;45.20;;;;;;8281484;28;20076;-80
2022/07/21 14:44:52;;;;;;;7.40;5.43;;;37.90;49.20;;;;;;8280859;28;20113;-80
2022/07/21 14:48:52;;;;;;;7.05;5.78;;;36.00;53.70;;;;;;8280169;28;20431;-81
2022/07/21 14:52:55;;;;;;;6.63;5.85;;;37.10;51.80;;;;;;8276501;28;20079;-81
2022/07/21 14:56:56;;;;;;;5.78;5.25;;;38.30;48.20;;;;;;8279005;28;20443;-79
2022/07/21 15:00:56;;;;;;;7.40;5.47;;;38.00;48.30;;;;;;8277677;28;20110;-81
2022/07/21 15:04:57;;;;;;;8.02;5.50;;;37.50;49.30;;;;;;8282923;28;20032;-81
2022/07/21 15:08:58;;;;;;;6.00;5.35;;;38.60;49.00;;;;;;8282699;28;20029;-81
2022/07/21 15:12:58;;;;;;;6.50;5.80;;;38.70;49.30;;;;;;8276649;28;20036;-80
2022/07/21 15:16:59;;;;;;;5.75;5.18;;;39.00;47.10;;;;;;8280715;28;20026;-80
2022/07/21 15:21:00;;;;;;;6.93;5.95;;;36.20;52.00;;;;;;8281330;28;20156;-80
2022/07/21 15:25:01;;;;;;;6.65;5.60;;;34.10;55.50;;;;;;8267255;28;20019;-81
2022/07/21 15:29:02;;;;;;;7.57;6.10;;;34.60;54.40;;;;;;8277858;28;20540;-81
2022/07/21 15:33:03;;;;;;;6.63;5.93;;;35.10;55.10;;;;;;8284129;28;20073;-81
2022/07/21 15:37:03;;;;;;;7.57;5.95;;;35.20;55.80;;;;;;8289793;28;20619;-81
2022/07/21 15:41:04;;;;;;;7.07;5.65;;;34.80;55.60;;;;;;8288514;28;20544;-80
2022/07/21 15:45:05;;;;;;;5.88;5.30;;;35.80;55.80;;;;;;8287832;28;20034;-80
2022/07/21 15:49:05;;;;;;;9.85;5.93;;;33.80;56.40;;;;;;8286218;28;20030;-80
2022/07/21 15:53:06;;;;;;;7.93;6.03;;;31.60;60.20;;;;;;8278826;28;20029;-82
2022/07/21 15:57:09;;;;;;;8.68;6.15;;;30.10;64.90;;;;;;8277068;28;20482;-81
2022/07/21 16:01:09;;;;;;;6.55;5.60;;;29.40;66.80;;;;;;8278388;28;20028;-81
2022/07/21 16:05:13;;;;;;;7.10;6.13;;;29.10;69.00;;;;;;8283327;28;20027;-81
2022/07/21 16:09:14;;;;;;;6.70;5.88;;;29.10;69.20;;;;;;8279241;28;20034;-81
2022/07/21 16:13:15;;;;;;;10.05;5.95;;;29.00;70.00;;;;;;8280252;28;20034;-82
2022/07/21 16:17:16;;;;;;;6.40;5.70;;;28.90;71.20;;;;;;8280894;28;20505;-82
2022/07/21 16:21:17;;;;;;;7.82;6.40;;;29.00;71.00;;;;;;8281031;28;20031;-81
2022/07/21 16:25:20;;;;;;;7.82;6.03;;;28.60;72.70;;;;;;8276331;28;20030;-81
2022/07/21 16:29:20;;;;;;;6.93;5.80;;;28.40;72.10;;;;;;8276096;28;20050;-82
2022/07/21 16:33:22;;;;;;;8.40;6.30;;;28.50;71.80;;;;;;8288437;28;20037;-80
2022/07/21 16:37:22;;;;;;;15.13;6.05;;;29.40;71.20;;;;;;8277712;28;20022;-81
2022/07/21 16:41:23;;;;;;;6.97;5.88;;;30.10;69.10;;;;;;8287776;28;20133;-82
2022/07/21 16:45:24;;;;;;;8.38;5.88;;;30.50;67.70;;;;;;8283239;28;20034;-81
2022/07/21 16:49:26;;;;;;;7.50;6.00;;;30.80;67.40;;;;;;8285055;28;20026;-81
2022/07/21 16:53:26;;;;;;;7.40;5.95;;;30.20;66.20;;;;;;8283271;28;20441;-81
2022/07/21 16:57:27;;;;;;;9.02;6.30;;;29.90;69.30;;;;;;8282969;28;20018;-82
2022/07/21 17:01:28;;;;;;;8.02;6.30;;;29.40;68.30;;;;;;8283687;28;20097;-80
2022/07/21 17:05:28;;;;;;;6.45;5.72;;;29.00;70.00;;;;;;8283960;28;20037;-81
2022/07/21 17:09:29;;;;;;;6.63;5.80;;;28.10;72.90;;;;;;8287782;28;20101;-82
2022/07/21 17:13:29;;;;;;;8.18;6.10;;;27.70;75.10;;;;;;8283069;28;20272;-81
2022/07/21 17:17:30;;;;;;;9.13;6.00;;;27.50;78.60;;;;;;8273793;28;20102;-81
2022/07/21 17:21:30;;;;;;;8.73;5.97;;;27.30;81.30;;;;;;8276916;28;20049;-79
2022/07/21 17:25:31;;;;;;;8.40;6.13;;;27.20;83.70;;;;;;8294140;28;20045;-78
2022/07/21 17:29:31;;;;;;;7.85;6.03;;;27.00;82.30;;;;;;8278885;28;20091;-81
2022/07/21 17:33:32;;;;;;;8.82;6.13;;;26.80;84.30;;;;;;8271668;28;20034;-79
2022/07/21 17:37:33;;;;;;;7.25;5.90;;;26.50;90.20;;;;;;8283633;28;20030;-81
2022/07/21 17:41:33;;;;;;;8.32;6.43;;;26.20;88.20;;;;;;8282297;28;20023;-81
2022/07/21 17:45:34;;;;;;;8.07;6.22;;;26.00;91.90;;;;;;8284910;28;20037;-81
2022/07/21 17:49:35;;;;;;;6.75;5.95;;;25.80;93.10;;;;;;8278486;28;20506;-81
2022/07/21 17:53:35;;;;;;;9.70;6.55;;;25.30;94.30;;;;;;8278220;28;20494;-81
2022/07/21 18:01:56;;;;;;;9.45;7.28;;;24.40;99.90;;;;;;8285564;28;20060;-80
2022/07/21 18:05:57;;;;;;;11.68;6.82;;;24.40;99.90;;;;;;8283733;28;20026;-81
2022/07/21 18:10:00;;;;;;;15.18;7.40;;;24.30;99.90;;;;;;8264256;28;20537;-81
2022/07/21 18:14:00;;;;;;;16.17;6.95;;;24.20;99.90;;;;;;8277164;28;20036;-82
2022/07/21 18:18:01;;;;;;;14.00;6.70;;;24.10;99.90;;;;;;8279005;28;20486;-84
2022/07/21 18:22:02;;;;;;;14.02;7.22;;;23.90;99.90;;;;;;8279419;28;20128;-84
2022/07/21 18:26:02;;;;;;;12.70;7.45;;;23.80;99.90;;;;;;8285726;28;20033;-82
2022/07/21 18:30:04;;;;;;;10.60;7.75;;;23.70;99.90;;;;;;8283037;28;20030;-82
2022/07/21 18:34:05;;;;;;;14.80;7.63;;;23.80;99.90;;;;;;8278430;28;20632;-82
2022/07/21 18:38:06;;;;;;;21.17;8.63;;;23.60;99.90;;;;;;8286415;28;20032;-82
2022/07/21 18:42:07;;;;;;;26.60;7.97;;;23.20;99.90;;;;;;8283065;28;20037;-82
2022/07/21 18:46:08;;;;;;;16.23;8.30;;;23.10;99.90;;;;;;8290308;28;20022;-82
2022/07/21 18:50:09;;;;;;;14.20;8.45;;;22.80;99.90;;;;;;8286680;28;20018;-82
2022/07/21 18:54:09;;;;;;;18.83;8.13;;;22.80;99.90;;;;;;8280387;28;20049;-82
2022/07/21 18:58:10;;;;;;;11.98;7.35;;;22.70;99.90;;;;;;8292426;28;20041;-81
2022/07/21 19:02:10;;;;;;;8.02;6.93;;;22.50;99.90;;;;;;8285555;28;20667;-81
2022/07/21 19:06:11;;;;;;;11.32;7.82;;;22.40;99.90;;;;;;8285840;28;20036;-81
2022/07/21 19:10:14;;;;;;;8.10;7.22;;;22.20;99.90;;;;;;8292392;28;20077;-81
2022/07/21 19:14:15;;;;;;;8.55;7.43;;;22.10;99.90;;;;;;8272748;23;20054;-82
2022/07/21 19:18:15;;;;;;;8.82;7.40;;;22.00;99.90;;;;;;8274188;28;20402;-81
2022/07/21 19:22:16;;;;;;;8.98;7.18;;;22.00;99.90;;;;;;8256275;28;20148;-81
2022/07/21 19:26:16;;;;;;;9.57;8.27;;;22.00;99.90;;;;;;8259013;28;20113;-81
2022/07/21 19:30:17;;;;;;;9.68;8.23;;;22.10;99.90;;;;;;8258506;28;20022;-81
2022/07/21 19:34:18;;;;;;;8.95;8.05;;;21.90;99.90;;;;;;8272999;28;20477;-79
2022/07/21 19:38:18;;;;;;;9.63;8.63;;;21.50;99.90;;;;;;8259474;28;20034;-79
2022/07/21 19:42:19;;;;;;;9.50;8.60;;;21.20;99.90;;;;;;8258820;28;20506;-80
2022/07/21 19:46:20;;;;;;;9.57;8.63;;;21.00;99.90;;;;;;8256500;28;20022;-79
2022/07/21 19:50:21;;;;;;;12.02;8.10;;;21.00;99.90;;;;;;8253915;28;20033;-79
2022/07/21 19:54:21;;;;;;;9.82;8.80;;;21.00;99.90;;;;;;8258954;28;20026;-79
2022/07/21 19:58:22;;;;;;;9.52;7.95;;;21.00;99.90;;;;;;8257374;28;20194;-79
2022/07/21 20:02:23;;;;;;;11.43;8.77;;;20.80;99.90;;;;;;8272684;28;20026;-79
2022/07/21 20:06:23;;;;;;;10.25;8.73;;;20.60;99.90;;;;;;8262848;28;20027;-80
2022/07/21 20:10:24;;;;;;;10.40;9.30;;;20.30;99.90;;;;;;8263733;28;20042;-79
2022/07/21 20:14:25;;;;;;;9.80;8.80;;;20.10;99.90;;;;;;8265306;28;20113;-79
2022/07/21 20:18:25;;;;;;;11.85;8.80;;;19.90;99.90;;;;;;8264160;28;20034;-79
2022/07/21 20:22:26;;;;;;;10.45;8.65;;;19.90;99.90;;;;;;8279509;28;20026;-80
2022/07/21 20:26:27;;;;;;;9.88;8.82;;;19.80;99.90;;;;;;8279629;28;20127;-79
2022/07/21 20:30:27;;;;;;;10.23;8.90;;;19.70;99.90;;;;;;8263287;28;20034;-79
2022/07/21 20:34:28;;;;;;;11.85;9.43;;;19.60;99.90;;;;;;8264782;28;20573;-79
2022/07/21 20:38:28;;;;;;;12.13;9.15;;;19.60;99.90;;;;;;8263246;28;20042;-79
2022/07/21 20:42:29;;;;;;;10.73;9.15;;;19.50;99.90;;;;;;8278164;28;20064;-79
2022/07/21 20:46:30;;;;;;;12.23;9.75;;;19.50;99.90;;;;;;8264367;28;20041;-79